This is the latest recevied weather packets stored in our database for station/object KQ4PPF. If no packets are shown the sender has not sent any weather packets the latest 10 day(s).
| Time | Temp. | Humidity | Pressure | Rain* | Wind** | Luminosity | Snow |
|---|---|---|---|---|---|---|---|
| 1777370152 | 14.44° C | 99% | 1019.6 hPa | 0 mm | - | 0 W/m² | - |
| 1777369850 | 14.44° C | 99% | 1019.7 hPa | 0 mm | - | 0 W/m² | - |
| 1777369549 | 14.44° C | 99% | 1018.5 hPa | 0 mm | - | 0 W/m² | - |
| 1777369246 | 14.44° C | 99% | 1018.2 hPa | 0 mm | - | 0 W/m² | - |
| 1777368945 | 13.89° C | 99% | 1017.5 hPa | 0 mm | - | 0 W/m² | - |
| 1777368640 | 13.89° C | 98% | 1017.3 hPa | 0 mm | - | 0 W/m² | - |
| 1777368333 | 13.89° C | 98% | 1017.1 hPa | 0 mm | - | 0 W/m² | - |
| 1777368032 | 14.44° C | 98% | 1016.7 hPa | 0 mm | - | 0 W/m² | - |
| 1777367729 | 13.89° C | 98% | 1016.8 hPa | 0 mm | - | 0 W/m² | - |
| 1777367425 | 13.89° C | 98% | 1016.9 hPa | 0 mm | - | 0 W/m² | - |
| 1777367124 | 14.44° C | 98% | 1016.7 hPa | 0 mm | - | 0 W/m² | - |
| 1777366820 | 14.44° C | 98% | 1017 hPa | 0 mm | - | 0 W/m² | - |
| 1777366515 | 14.44° C | 98% | 1017.4 hPa | 0 mm | - | 0 W/m² | - |
| 1777366210 | 14.44° C | 97% | 1017.4 hPa | 0 mm | - | 0 W/m² | - |
| 1777365907 | 14.44° C | 97% | 1017.9 hPa | 0 mm | - | 0 W/m² | - |
| 1777365603 | 14.44° C | 97% | 1016.4 hPa | 0 mm | - | 0 W/m² | - |
| 1777365303 | 14.44° C | 97% | 1016.4 hPa | 0 mm | - | 0 W/m² | - |
| 1777365001 | 15° C | 96% | 1016.1 hPa | 0 mm | - | 0 W/m² | - |
| 1777364697 | 15° C | 95% | 1015.9 hPa | 0 mm | - | 0 W/m² | - |
| 1777364392 | 15° C | 94% | 1016.1 hPa | 0 mm | - | 0 W/m² | - |
| 1777364089 | 15° C | 92% | 1016.1 hPa | 0 mm | - | 0 W/m² | - |
| 1777363785 | 15.56° C | 88% | 1016.2 hPa | 0 mm | - | 0 W/m² | - |
| 1777363482 | 18.33° C | 78% | 1016.6 hPa | 0 mm | - | 0 W/m² | - |
| 1777363179 | 18.89° C | 66% | 1016.9 hPa | 0 mm | - | 0 W/m² | - |
| 1777362875 | 18.89° C | 66% | 1016.1 hPa | 0 mm | - | 0 W/m² | - |
* Rain latest hour (hover to see other rain measurements)
** Current wind speed in m/s (hover to see current wind gust speed)